VLG2800 LEBB-EGPH
Flight info
| Callsign | VLG2800 |
|---|---|
| Flight time | 2h 0m |
| Altitude | 20000 |
| Route | DOSUL N75 DELOG/N0441F360 DCT DOLUR/N0439F370 DCT UNFIT DCT INFEC DCT KISWO DCT AVTIC DCT ANJAK/N0437F360 N38 NOKIN UP16 RIBEL DCT ABEVI DCT INPIP |
| Aircraft | A320/M-SDE3FGHIRWY/LB1 |
Departure
| Time | 2026-04-25 15:17 |
|---|---|
| Airport | Bilbao Airport (LEBB) |
Arrival
| Time | 2026-04-25 17:18 |
|---|---|
| Airport | Edinburgh Airport (EGPH) |
| Time | Latitude | Longitude | Altitude | Speed | Heading |
|---|---|---|---|---|---|
| 2026-04-25 14:01 | 43.30407 | -2.90579 | 133 ft | 0 kts | 26° |
| 2026-04-25 15:03 | 43.30396 | -2.90586 | 132 ft | 4 kts | 26° |
| 2026-04-25 15:03 | 43.30374 | -2.90602 | 132 ft | 2 kts | 26° |
| 2026-04-25 15:04 | 43.30356 | -2.90618 | 132 ft | 4 kts | 67° |
| 2026-04-25 15:04 | 43.30356 | -2.90650 | 132 ft | 4 kts | 115° |
| 2026-04-25 15:04 | 43.30368 | -2.90681 | 132 ft | 4 kts | 116° |
| 2026-04-25 15:04 | 43.30375 | -2.90702 | 132 ft | 0 kts | 116° |
| 2026-04-25 15:06 | 43.30374 | -2.90699 | 132 ft | 2 kts | 116° |
| 2026-04-25 15:07 | 43.30357 | -2.90652 | 132 ft | 11 kts | 116° |
| 2026-04-25 15:07 | 43.30301 | -2.90573 | 132 ft | 11 kts | 146° |
| 2026-04-25 15:07 | 43.30227 | -2.90526 | 132 ft | 14 kts | 186° |
| 2026-04-25 15:07 | 43.30144 | -2.90580 | 132 ft | 12 kts | 185° |
| 2026-04-25 15:08 | 43.30093 | -2.90506 | 132 ft | 10 kts | 116° |
| 2026-04-25 15:08 | 43.30063 | -2.90422 | 132 ft | 11 kts | 116° |
| 2026-04-25 15:08 | 43.30027 | -2.90325 | 132 ft | 11 kts | 116° |
| 2026-04-25 15:08 | 43.29988 | -2.90219 | 132 ft | 13 kts | 117° |
| 2026-04-25 15:09 | 43.29949 | -2.90112 | 132 ft | 12 kts | 117° |
| 2026-04-25 15:09 | 43.29915 | -2.90017 | 132 ft | 10 kts | 117° |
| 2026-04-25 15:09 | 43.29848 | -2.89839 | 132 ft | 11 kts | 117° |
| 2026-04-25 15:10 | 43.29828 | -2.89782 | 132 ft | 10 kts | 116° |
| 2026-04-25 15:10 | 43.29790 | -2.89677 | 132 ft | 9 kts | 117° |
| 2026-04-25 15:10 | 43.29735 | -2.89530 | 132 ft | 8 kts | 118° |
| 2026-04-25 15:11 | 43.29693 | -2.89495 | 132 ft | 8 kts | 181° |
| 2026-04-25 15:11 | 43.29679 | -2.89501 | 132 ft | 0 kts | 204° |
| 2026-04-25 15:14 | 43.29674 | -2.89505 | 132 ft | 3 kts | 209° |
| 2026-04-25 15:14 | 43.29656 | -2.89543 | 132 ft | 5 kts | 252° |
| 2026-04-25 15:14 | 43.29639 | -2.89615 | 127 ft | 12 kts | 252° |
| 2026-04-25 15:15 | 43.29624 | -2.89740 | 127 ft | 13 kts | 300° |
| 2026-04-25 15:15 | 43.29637 | -2.89770 | 126 ft | 0 kts | 299° |
| 2026-04-25 15:16 | 43.29648 | -2.89799 | 124 ft | 24 kts | 297° |
| 2026-04-25 15:16 | 43.29842 | -2.90330 | 125 ft | 96 kts | 297° |
| 2026-04-25 15:16 | 43.30727 | -2.92734 | 602 ft | 160 kts | 298° |
| 2026-04-25 15:17 | 43.31836 | -2.95569 | 1636 ft | 186 kts | 301° |
| 2026-04-25 15:17 | 43.32493 | -2.97217 | 1916 ft | 208 kts | 304° |
| 2026-04-25 15:17 | 43.33415 | -2.98885 | 2240 ft | 231 kts | 311° |
| 2026-04-25 15:18 | 43.34560 | -3.00577 | 2761 ft | 249 kts | 315° |
| 2026-04-25 15:18 | 43.37053 | -3.04005 | 4495 ft | 258 kts | 315° |
| 2026-04-25 15:18 | 43.38324 | -3.05773 | 5343 ft | 261 kts | 314° |
| 2026-04-25 15:19 | 43.39617 | -3.07564 | 6158 ft | 266 kts | 319° |
| 2026-04-25 15:19 | 43.40088 | -3.08075 | 6408 ft | 268 kts | 326° |
| 2026-04-25 15:19 | 43.43092 | -3.09291 | 7724 ft | 276 kts | 353° |
| 2026-04-25 15:19 | 43.44975 | -3.09791 | 8507 ft | 278 kts | 340° |
| 2026-04-25 15:20 | 43.46708 | -3.10947 | 9293 ft | 278 kts | 324° |
| 2026-04-25 15:20 | 43.48307 | -3.12486 | 10060 ft | 282 kts | 324° |
| 2026-04-25 15:20 | 43.49919 | -3.14048 | 10576 ft | 295 kts | 323° |
| 2026-04-25 15:20 | 43.51661 | -3.15742 | 10775 ft | 318 kts | 323° |
| 2026-04-25 15:21 | 43.52905 | -3.16952 | 10980 ft | 329 kts | 324° |
| 2026-04-25 15:21 | 43.55427 | -3.19402 | 11792 ft | 338 kts | 324° |
| 2026-04-25 15:21 | 43.57364 | -3.21273 | 12476 ft | 342 kts | 326° |
| 2026-04-25 15:21 | 43.59515 | -3.22695 | 13187 ft | 347 kts | 343° |
| 2026-04-25 15:22 | 43.61917 | -3.23175 | 13862 ft | 351 kts | 355° |
| 2026-04-25 15:22 | 43.64370 | -3.23444 | 14462 ft | 356 kts | 355° |
| 2026-04-25 15:22 | 43.66844 | -3.23699 | 15063 ft | 359 kts | 355° |
| 2026-04-25 15:22 | 43.68531 | -3.23868 | 15463 ft | 361 kts | 354° |
| 2026-04-25 15:23 | 43.71053 | -3.24121 | 16031 ft | 365 kts | 355° |
| 2026-04-25 15:23 | 43.73596 | -3.24377 | 16612 ft | 368 kts | 354° |
| 2026-04-25 15:23 | 43.76162 | -3.24637 | 17187 ft | 372 kts | 355° |
| 2026-04-25 15:23 | 43.78721 | -3.24901 | 17745 ft | 375 kts | 355° |
| 2026-04-25 15:24 | 43.81336 | -3.25174 | 18311 ft | 379 kts | 354° |
| 2026-04-25 15:24 | 43.83978 | -3.25455 | 18827 ft | 382 kts | 355° |
| 2026-04-25 15:24 | 43.86648 | -3.25738 | 19301 ft | 386 kts | 354° |
| 2026-04-25 15:24 | 43.88428 | -3.25927 | 19630 ft | 388 kts | 355° |
| 2026-04-25 15:25 | 43.92047 | -3.26311 | 20290 ft | 392 kts | 353° |
| 2026-04-25 15:25 | 43.94781 | -3.26602 | 20789 ft | 395 kts | 354° |
| 2026-04-25 15:25 | 43.97539 | -3.26891 | 21285 ft | 399 kts | 354° |
| 2026-04-25 15:25 | 44.00314 | -3.27181 | 21820 ft | 401 kts | 355° |
| 2026-04-25 15:26 | 44.03101 | -3.27470 | 22338 ft | 403 kts | 353° |
| 2026-04-25 15:26 | 44.05906 | -3.27765 | 22828 ft | 405 kts | 354° |
| 2026-04-25 15:26 | 44.08730 | -3.28063 | 23299 ft | 408 kts | 354° |
| 2026-04-25 15:26 | 44.11577 | -3.28367 | 23757 ft | 411 kts | 354° |
| 2026-04-25 15:27 | 44.14440 | -3.28674 | 24124 ft | 414 kts | 354° |
| 2026-04-25 15:27 | 44.17319 | -3.28984 | 24499 ft | 416 kts | 354° |
| 2026-04-25 15:27 | 44.23098 | -3.29611 | 25328 ft | 417 kts | 354° |
| 2026-04-25 15:28 | 44.26001 | -3.29922 | 25679 ft | 419 kts | 354° |
| 2026-04-25 15:28 | 44.28917 | -3.30234 | 26019 ft | 422 kts | 354° |
| 2026-04-25 15:28 | 44.31851 | -3.30544 | 26358 ft | 424 kts | 354° |
| 2026-04-25 15:28 | 44.34802 | -3.30853 | 26685 ft | 426 kts | 354° |
| 2026-04-25 15:29 | 44.37770 | -3.31165 | 27024 ft | 428 kts | 354° |
| 2026-04-25 15:29 | 44.40738 | -3.31479 | 27394 ft | 429 kts | 354° |
| 2026-04-25 15:29 | 44.43721 | -3.31796 | 27722 ft | 431 kts | 354° |
| 2026-04-25 15:29 | 44.46680 | -3.32112 | 28031 ft | 433 kts | 354° |
| 2026-04-25 15:30 | 44.49730 | -3.32438 | 28328 ft | 435 kts | 354° |
| 2026-04-25 15:30 | 44.52718 | -3.32760 | 28622 ft | 437 kts | 353° |
| 2026-04-25 15:30 | 44.55756 | -3.33093 | 28910 ft | 439 kts | 353° |
| 2026-04-25 15:30 | 44.58804 | -3.33427 | 29222 ft | 440 kts | 354° |
| 2026-04-25 15:31 | 44.61862 | -3.33760 | 29545 ft | 441 kts | 354° |
| 2026-04-25 15:31 | 44.64928 | -3.34094 | 29813 ft | 443 kts | 354° |
| 2026-04-25 15:31 | 44.68009 | -3.34429 | 30063 ft | 445 kts | 353° |
| 2026-04-25 15:31 | 44.71098 | -3.34762 | 30306 ft | 446 kts | 354° |
| 2026-04-25 15:32 | 44.74198 | -3.35092 | 30500 ft | 448 kts | 354° |
| 2026-04-25 15:32 | 44.77316 | -3.35425 | 30711 ft | 449 kts | 354° |
| 2026-04-25 15:32 | 44.80435 | -3.35760 | 30922 ft | 450 kts | 354° |
| 2026-04-25 15:33 | 44.86672 | -3.36446 | 31493 ft | 448 kts | 354° |
| 2026-04-25 15:33 | 44.89776 | -3.36781 | 31767 ft | 448 kts | 354° |
| 2026-04-25 15:33 | 44.92881 | -3.37116 | 32048 ft | 447 kts | 354° |
| 2026-04-25 15:33 | 44.95982 | -3.37454 | 32349 ft | 446 kts | 354° |
| 2026-04-25 15:34 | 44.99065 | -3.37788 | 32661 ft | 444 kts | 354° |
| 2026-04-25 15:34 | 45.02144 | -3.38122 | 32964 ft | 443 kts | 354° |
| 2026-04-25 15:34 | 45.05215 | -3.38461 | 33239 ft | 442 kts | 354° |
| 2026-04-25 15:34 | 45.07249 | -3.38687 | 33423 ft | 442 kts | 354° |
| 2026-04-25 15:35 | 45.14400 | -3.39475 | 34072 ft | 440 kts | 354° |
| 2026-04-25 15:35 | 45.17453 | -3.39811 | 34363 ft | 438 kts | 354° |
| 2026-04-25 15:35 | 45.20490 | -3.40149 | 34616 ft | 437 kts | 354° |
| 2026-04-25 15:36 | 45.26557 | -3.40824 | 35051 ft | 437 kts | 354° |
| 2026-04-25 15:36 | 45.29589 | -3.41160 | 35154 ft | 436 kts | 354° |
| 2026-04-25 15:36 | 45.32604 | -3.41490 | 35172 ft | 434 kts | 354° |
| 2026-04-25 15:37 | 45.38611 | -3.42147 | 35171 ft | 432 kts | 354° |
| 2026-04-25 15:37 | 45.44601 | -3.42817 | 35169 ft | 432 kts | 354° |
| 2026-04-25 15:38 | 45.50590 | -3.43490 | 35168 ft | 432 kts | 354° |
| 2026-04-25 15:38 | 45.56572 | -3.44166 | 35169 ft | 431 kts | 353° |
| 2026-04-25 15:39 | 45.62551 | -3.44839 | 35166 ft | 431 kts | 354° |
| 2026-04-25 15:39 | 45.68528 | -3.45501 | 35163 ft | 431 kts | 354° |
| 2026-04-25 15:40 | 45.72485 | -3.45939 | 35171 ft | 431 kts | 354° |
| 2026-04-25 15:40 | 45.80435 | -3.46828 | 35176 ft | 430 kts | 353° |
| 2026-04-25 15:41 | 45.86399 | -3.47498 | 35172 ft | 430 kts | 354° |
| 2026-04-25 15:41 | 45.92350 | -3.48172 | 35169 ft | 429 kts | 353° |
| 2026-04-25 15:42 | 45.98301 | -3.48851 | 35169 ft | 428 kts | 353° |
| 2026-04-25 15:42 | 46.04244 | -3.49517 | 35168 ft | 428 kts | 353° |
| 2026-04-25 15:43 | 46.10182 | -3.50186 | 35169 ft | 428 kts | 353° |
| 2026-04-25 15:43 | 46.16109 | -3.50865 | 35175 ft | 427 kts | 353° |
| 2026-04-25 15:44 | 46.22032 | -3.51550 | 35176 ft | 427 kts | 353° |
| 2026-04-25 15:44 | 46.27945 | -3.52234 | 35176 ft | 426 kts | 353° |
| 2026-04-25 15:45 | 46.33863 | -3.52908 | 35183 ft | 426 kts | 353° |
| 2026-04-25 15:45 | 46.37813 | -3.53356 | 35185 ft | 426 kts | 353° |
| 2026-04-25 15:46 | 46.45674 | -3.54267 | 35181 ft | 425 kts | 353° |
| 2026-04-25 15:46 | 46.51566 | -3.54950 | 35188 ft | 425 kts | 353° |
| 2026-04-25 15:47 | 46.57458 | -3.55630 | 35189 ft | 424 kts | 353° |
| 2026-04-25 15:47 | 46.63338 | -3.56314 | 35187 ft | 423 kts | 353° |
| 2026-04-25 15:48 | 46.69209 | -3.56999 | 35184 ft | 423 kts | 353° |
| 2026-04-25 15:48 | 46.75076 | -3.57683 | 35181 ft | 423 kts | 353° |
| 2026-04-25 15:49 | 46.80904 | -3.58363 | 35180 ft | 423 kts | 353° |
| 2026-04-25 15:49 | 46.86764 | -3.59044 | 35178 ft | 422 kts | 353° |
| 2026-04-25 15:50 | 46.92620 | -3.59724 | 35181 ft | 422 kts | 353° |
| 2026-04-25 15:50 | 46.98481 | -3.60412 | 35184 ft | 422 kts | 353° |
| 2026-04-25 15:51 | 47.02396 | -3.60879 | 35190 ft | 422 kts | 353° |
| 2026-04-25 15:51 | 47.10176 | -3.61806 | 35186 ft | 421 kts | 353° |
| 2026-04-25 15:52 | 47.16014 | -3.62485 | 35187 ft | 421 kts | 353° |
| 2026-04-25 15:52 | 47.21854 | -3.63180 | 35182 ft | 420 kts | 353° |
| 2026-04-25 15:53 | 47.27655 | -3.63866 | 35176 ft | 420 kts | 353° |
| 2026-04-25 15:53 | 47.33480 | -3.64553 | 35178 ft | 420 kts | 353° |
| 2026-04-25 15:54 | 47.39301 | -3.65254 | 35176 ft | 419 kts | 353° |
| 2026-04-25 15:54 | 47.45124 | -3.65961 | 35169 ft | 419 kts | 353° |
| 2026-04-25 15:55 | 47.50937 | -3.66653 | 35159 ft | 419 kts | 353° |
| 2026-04-25 15:55 | 47.56754 | -3.67341 | 35166 ft | 419 kts | 352° |
| 2026-04-25 15:56 | 47.62570 | -3.68048 | 35159 ft | 419 kts | 352° |
| 2026-04-25 15:56 | 47.68389 | -3.68758 | 35158 ft | 419 kts | 352° |
| 2026-04-25 15:57 | 47.74196 | -3.69468 | 35154 ft | 419 kts | 352° |
| 2026-04-25 15:57 | 47.80005 | -3.70170 | 35150 ft | 419 kts | 352° |
| 2026-04-25 15:58 | 47.85815 | -3.70868 | 35144 ft | 419 kts | 352° |
| 2026-04-25 15:58 | 47.91617 | -3.71564 | 35143 ft | 418 kts | 352° |
| 2026-04-25 15:59 | 47.97428 | -3.72272 | 35148 ft | 419 kts | 352° |
| 2026-04-25 15:59 | 48.03235 | -3.72981 | 35146 ft | 419 kts | 352° |
| 2026-04-25 16:00 | 48.07088 | -3.73452 | 35145 ft | 419 kts | 352° |
| 2026-04-25 16:00 | 48.14861 | -3.74421 | 35147 ft | 419 kts | 352° |
| 2026-04-25 16:01 | 48.20668 | -3.75145 | 35156 ft | 419 kts | 352° |
| 2026-04-25 16:01 | 48.26489 | -3.75851 | 35157 ft | 419 kts | 352° |
| 2026-04-25 16:02 | 48.32304 | -3.76566 | 35156 ft | 419 kts | 352° |
| 2026-04-25 16:02 | 48.38120 | -3.77292 | 35168 ft | 419 kts | 352° |
| 2026-04-25 16:03 | 48.43934 | -3.78013 | 35171 ft | 419 kts | 352° |
| 2026-04-25 16:03 | 48.49750 | -3.78729 | 35168 ft | 419 kts | 352° |
| 2026-04-25 16:04 | 48.54578 | -3.79334 | 35194 ft | 419 kts | 352° |
| 2026-04-25 16:04 | 48.60397 | -3.80066 | 35202 ft | 419 kts | 352° |
| 2026-04-25 16:05 | 48.66214 | -3.80797 | 35193 ft | 420 kts | 352° |
| 2026-04-25 16:06 | 48.74952 | -3.81895 | 35187 ft | 420 kts | 352° |
| 2026-04-25 16:06 | 48.80780 | -3.82627 | 35186 ft | 420 kts | 352° |
| 2026-04-25 16:07 | 48.86612 | -3.83365 | 35178 ft | 420 kts | 352° |
| 2026-04-25 16:07 | 48.92446 | -3.84100 | 35184 ft | 421 kts | 352° |
| 2026-04-25 16:08 | 48.98238 | -3.84830 | 35187 ft | 420 kts | 352° |
| 2026-04-25 16:08 | 49.04066 | -3.85581 | 35198 ft | 420 kts | 351° |
| 2026-04-25 16:09 | 49.09902 | -3.86325 | 35188 ft | 421 kts | 351° |
| 2026-04-25 16:09 | 49.15748 | -3.87068 | 35186 ft | 421 kts | 351° |
| 2026-04-25 16:10 | 49.21589 | -3.87819 | 35189 ft | 421 kts | 351° |
| 2026-04-25 16:10 | 49.27435 | -3.88577 | 35194 ft | 422 kts | 351° |
| 2026-04-25 16:11 | 49.33293 | -3.89325 | 35188 ft | 422 kts | 352° |
| 2026-04-25 16:11 | 49.39156 | -3.90069 | 35187 ft | 423 kts | 351° |
| 2026-04-25 16:12 | 49.45024 | -3.90832 | 35188 ft | 423 kts | 351° |
| 2026-04-25 16:12 | 49.50894 | -3.91604 | 35202 ft | 424 kts | 351° |
| 2026-04-25 16:13 | 49.56767 | -3.92379 | 35205 ft | 424 kts | 351° |
| 2026-04-25 16:13 | 49.62647 | -3.93135 | 35205 ft | 424 kts | 351° |
| 2026-04-25 16:14 | 49.68524 | -3.93898 | 35217 ft | 424 kts | 351° |
| 2026-04-25 16:14 | 49.74406 | -3.94674 | 35207 ft | 424 kts | 351° |
| 2026-04-25 16:15 | 49.80254 | -3.95448 | 35205 ft | 424 kts | 351° |
| 2026-04-25 16:15 | 49.86140 | -3.96219 | 35204 ft | 425 kts | 351° |
| 2026-04-25 16:16 | 49.92031 | -3.96993 | 35207 ft | 425 kts | 351° |
| 2026-04-25 16:16 | 49.97930 | -3.97771 | 35197 ft | 425 kts | 351° |
| 2026-04-25 16:17 | 50.03831 | -3.98553 | 35196 ft | 425 kts | 351° |
| 2026-04-25 16:17 | 50.09729 | -3.99335 | 35195 ft | 426 kts | 351° |
| 2026-04-25 16:18 | 50.15642 | -4.00124 | 35206 ft | 426 kts | 351° |
| 2026-04-25 16:18 | 50.21548 | -4.00918 | 35206 ft | 426 kts | 351° |
| 2026-04-25 16:19 | 50.27458 | -4.01709 | 35207 ft | 426 kts | 351° |
| 2026-04-25 16:19 | 50.33369 | -4.02495 | 35208 ft | 426 kts | 351° |
| 2026-04-25 16:20 | 50.42242 | -4.03689 | 35210 ft | 426 kts | 351° |
| 2026-04-25 16:21 | 50.51109 | -4.04892 | 35203 ft | 426 kts | 351° |
| 2026-04-25 16:21 | 50.57018 | -4.05694 | 35197 ft | 426 kts | 351° |
| 2026-04-25 16:22 | 50.62933 | -4.06496 | 35197 ft | 427 kts | 351° |
| 2026-04-25 16:22 | 50.68823 | -4.07300 | 35192 ft | 427 kts | 351° |
| 2026-04-25 16:23 | 50.74750 | -4.08109 | 35187 ft | 427 kts | 351° |
| 2026-04-25 16:23 | 50.80678 | -4.08925 | 35193 ft | 428 kts | 351° |
| 2026-04-25 16:24 | 50.86613 | -4.09746 | 35184 ft | 429 kts | 351° |
| 2026-04-25 16:24 | 50.92558 | -4.10571 | 35179 ft | 429 kts | 351° |
| 2026-04-25 16:25 | 50.98513 | -4.11387 | 35185 ft | 430 kts | 351° |
| 2026-04-25 16:25 | 51.04471 | -4.12207 | 35187 ft | 430 kts | 351° |
| 2026-04-25 16:26 | 51.10433 | -4.13031 | 35189 ft | 430 kts | 351° |
| 2026-04-25 16:26 | 51.16391 | -4.13862 | 35190 ft | 430 kts | 351° |
| 2026-04-25 16:27 | 51.22350 | -4.14699 | 35191 ft | 430 kts | 351° |
| 2026-04-25 16:27 | 51.28313 | -4.15537 | 35201 ft | 430 kts | 351° |
| 2026-04-25 16:28 | 51.34283 | -4.16373 | 35191 ft | 431 kts | 351° |
| 2026-04-25 16:28 | 51.40255 | -4.17200 | 35193 ft | 431 kts | 351° |
| 2026-04-25 16:29 | 51.46232 | -4.18046 | 35196 ft | 431 kts | 351° |
| 2026-04-25 16:29 | 51.52238 | -4.18338 | 35204 ft | 436 kts | 4° |
| 2026-04-25 16:30 | 51.58093 | -4.15577 | 35191 ft | 445 kts | 24° |
| 2026-04-25 16:30 | 51.63480 | -4.10575 | 35186 ft | 447 kts | 27° |
| 2026-04-25 16:31 | 51.68844 | -4.05474 | 35186 ft | 448 kts | 27° |
| 2026-04-25 16:31 | 51.74216 | -4.00347 | 35195 ft | 449 kts | 27° |
| 2026-04-25 16:32 | 51.79587 | -3.95209 | 35195 ft | 449 kts | 28° |
| 2026-04-25 16:32 | 51.84964 | -3.90048 | 35192 ft | 449 kts | 28° |
| 2026-04-25 16:33 | 51.90329 | -3.84872 | 35197 ft | 449 kts | 28° |
| 2026-04-25 16:33 | 51.95654 | -3.79731 | 35200 ft | 448 kts | 28° |
| 2026-04-25 16:34 | 52.01011 | -3.74541 | 35219 ft | 448 kts | 28° |
| 2026-04-25 16:34 | 52.06362 | -3.69349 | 35211 ft | 448 kts | 28° |
| 2026-04-25 16:35 | 52.11710 | -3.64143 | 35202 ft | 448 kts | 28° |
| 2026-04-25 16:35 | 52.17060 | -3.58920 | 35204 ft | 448 kts | 28° |
| 2026-04-25 16:36 | 52.22402 | -3.53690 | 35204 ft | 448 kts | 28° |
| 2026-04-25 16:36 | 52.27741 | -3.48451 | 35206 ft | 448 kts | 28° |
| 2026-04-25 16:37 | 52.33083 | -3.43191 | 35207 ft | 448 kts | 29° |
| 2026-04-25 16:37 | 52.38415 | -3.37916 | 35206 ft | 448 kts | 29° |
| 2026-04-25 16:38 | 52.43744 | -3.32629 | 35212 ft | 448 kts | 29° |
| 2026-04-25 16:38 | 52.49077 | -3.27339 | 35223 ft | 447 kts | 29° |
| 2026-04-25 16:39 | 52.54401 | -3.22041 | 35214 ft | 448 kts | 29° |
| 2026-04-25 16:39 | 52.59764 | -3.16858 | 35212 ft | 446 kts | 23° |
| 2026-04-25 16:40 | 52.65630 | -3.13896 | 35211 ft | 439 kts | 5° |
| 2026-04-25 16:40 | 52.71690 | -3.12788 | 35208 ft | 441 kts | 12° |
| 2026-04-25 16:41 | 52.77384 | -3.08931 | 35206 ft | 445 kts | 24° |
| 2026-04-25 16:41 | 52.85738 | -3.02371 | 35201 ft | 445 kts | 23° |
| 2026-04-25 16:42 | 52.91399 | -2.98248 | 35203 ft | 444 kts | 18° |
| 2026-04-25 16:42 | 52.97203 | -2.94725 | 35214 ft | 444 kts | 18° |
| 2026-04-25 16:43 | 53.02998 | -2.91179 | 35201 ft | 444 kts | 19° |
| 2026-04-25 16:43 | 53.08802 | -2.87609 | 35197 ft | 445 kts | 19° |
| 2026-04-25 16:44 | 53.14609 | -2.84022 | 35198 ft | 445 kts | 19° |
| 2026-04-25 16:44 | 53.20414 | -2.80421 | 35212 ft | 445 kts | 19° |
| 2026-04-25 16:45 | 53.26219 | -2.76805 | 35211 ft | 445 kts | 19° |
| 2026-04-25 16:45 | 53.32023 | -2.73187 | 35208 ft | 445 kts | 19° |
| 2026-04-25 16:46 | 53.37798 | -2.69577 | 35205 ft | 445 kts | 19° |
| 2026-04-25 16:46 | 53.41689 | -2.67141 | 35200 ft | 446 kts | 19° |
| 2026-04-25 16:47 | 53.49419 | -2.62283 | 35207 ft | 446 kts | 19° |
| 2026-04-25 16:47 | 53.55227 | -2.58618 | 35204 ft | 446 kts | 19° |
| 2026-04-25 16:48 | 53.60050 | -2.55570 | 35202 ft | 446 kts | 20° |
| 2026-04-25 16:48 | 53.65859 | -2.51882 | 35202 ft | 446 kts | 20° |
| 2026-04-25 16:49 | 53.71673 | -2.48189 | 35208 ft | 446 kts | 20° |
| 2026-04-25 16:49 | 53.77478 | -2.44480 | 35198 ft | 446 kts | 20° |
| 2026-04-25 16:50 | 53.83291 | -2.40762 | 35205 ft | 447 kts | 20° |
| 2026-04-25 16:50 | 53.89107 | -2.37034 | 35205 ft | 447 kts | 20° |
| 2026-04-25 16:51 | 53.94923 | -2.33290 | 35210 ft | 447 kts | 19° |
| 2026-04-25 16:51 | 53.99929 | -2.31364 | 35211 ft | 444 kts | 2° |
| 2026-04-25 16:52 | 54.04043 | -2.31585 | 35132 ft | 443 kts | 349° |
| 2026-04-25 16:52 | 54.07029 | -2.32766 | 34887 ft | 440 kts | 340° |
| 2026-04-25 16:52 | 54.09874 | -2.34664 | 34641 ft | 440 kts | 336° |
| 2026-04-25 16:52 | 54.12706 | -2.36644 | 34405 ft | 440 kts | 336° |
| 2026-04-25 16:53 | 54.18382 | -2.40586 | 33885 ft | 440 kts | 336° |
| 2026-04-25 16:53 | 54.21208 | -2.42547 | 33613 ft | 438 kts | 336° |
| 2026-04-25 16:53 | 54.24029 | -2.44508 | 33349 ft | 437 kts | 336° |
| 2026-04-25 16:54 | 54.26835 | -2.46459 | 33081 ft | 435 kts | 336° |
| 2026-04-25 16:54 | 54.29638 | -2.48412 | 32817 ft | 434 kts | 336° |
| 2026-04-25 16:54 | 54.32425 | -2.50358 | 32554 ft | 432 kts | 336° |
| 2026-04-25 16:54 | 54.35201 | -2.52302 | 32294 ft | 430 kts | 336° |
| 2026-04-25 16:55 | 54.37968 | -2.54249 | 32033 ft | 428 kts | 336° |
| 2026-04-25 16:55 | 54.40721 | -2.56189 | 31776 ft | 427 kts | 336° |
| 2026-04-25 16:55 | 54.43463 | -2.58122 | 31513 ft | 425 kts | 336° |
| 2026-04-25 16:55 | 54.46194 | -2.60047 | 31269 ft | 424 kts | 336° |
| 2026-04-25 16:56 | 54.48916 | -2.61969 | 31017 ft | 424 kts | 336° |
| 2026-04-25 16:56 | 54.51646 | -2.63898 | 30772 ft | 424 kts | 336° |
| 2026-04-25 16:56 | 54.54336 | -2.65799 | 30533 ft | 422 kts | 336° |
| 2026-04-25 16:56 | 54.57051 | -2.67722 | 30288 ft | 421 kts | 336° |
| 2026-04-25 16:57 | 54.59758 | -2.69644 | 30016 ft | 419 kts | 336° |
| 2026-04-25 16:57 | 54.61567 | -2.70930 | 29825 ft | 415 kts | 336° |
| 2026-04-25 16:57 | 54.65085 | -2.73434 | 29456 ft | 411 kts | 336° |
| 2026-04-25 16:57 | 54.67718 | -2.75311 | 29174 ft | 408 kts | 336° |
| 2026-04-25 16:58 | 54.70337 | -2.77183 | 28897 ft | 406 kts | 336° |
| 2026-04-25 16:58 | 54.72945 | -2.79047 | 28637 ft | 406 kts | 336° |
| 2026-04-25 16:58 | 54.75557 | -2.80918 | 28360 ft | 406 kts | 336° |
| 2026-04-25 16:58 | 54.78151 | -2.82782 | 27911 ft | 401 kts | 336° |
| 2026-04-25 16:59 | 54.80714 | -2.84621 | 27469 ft | 397 kts | 336° |
| 2026-04-25 16:59 | 54.83255 | -2.86445 | 27002 ft | 394 kts | 335° |
| 2026-04-25 16:59 | 54.85782 | -2.88261 | 26543 ft | 391 kts | 335° |
| 2026-04-25 16:59 | 54.88283 | -2.90059 | 26088 ft | 388 kts | 335° |
| 2026-04-25 17:00 | 54.90789 | -2.91865 | 25513 ft | 390 kts | 335° |
| 2026-04-25 17:00 | 54.93292 | -2.93680 | 24982 ft | 390 kts | 335° |
| 2026-04-25 17:00 | 54.95791 | -2.95496 | 24441 ft | 390 kts | 335° |
| 2026-04-25 17:00 | 54.98294 | -2.97313 | 23900 ft | 390 kts | 335° |
| 2026-04-25 17:01 | 55.00800 | -2.99133 | 23286 ft | 390 kts | 335° |
| 2026-04-25 17:01 | 55.03301 | -3.00947 | 22737 ft | 388 kts | 335° |
| 2026-04-25 17:01 | 55.05790 | -3.02753 | 22202 ft | 387 kts | 335° |
| 2026-04-25 17:01 | 55.08271 | -3.04558 | 21666 ft | 385 kts | 335° |
| 2026-04-25 17:02 | 55.10740 | -3.06362 | 21130 ft | 384 kts | 335° |
| 2026-04-25 17:02 | 55.13200 | -3.08160 | 20584 ft | 383 kts | 335° |
| 2026-04-25 17:02 | 55.15659 | -3.09956 | 20039 ft | 382 kts | 335° |
| 2026-04-25 17:02 | 55.17279 | -3.11142 | 19741 ft | 380 kts | 335° |
| 2026-04-25 17:03 | 55.20509 | -3.13509 | 18972 ft | 371 kts | 335° |
| 2026-04-25 17:03 | 55.22876 | -3.15251 | 18112 ft | 367 kts | 335° |
| 2026-04-25 17:03 | 55.25195 | -3.16964 | 17469 ft | 356 kts | 334° |
| 2026-04-25 17:03 | 55.27436 | -3.18620 | 17055 ft | 340 kts | 335° |
| 2026-04-25 17:04 | 55.29535 | -3.20177 | 16723 ft | 324 kts | 333° |
| 2026-04-25 17:04 | 55.31467 | -3.22102 | 16471 ft | 317 kts | 326° |
| 2026-04-25 17:04 | 55.33341 | -3.24117 | 16123 ft | 315 kts | 327° |
| 2026-04-25 17:04 | 55.35197 | -3.26112 | 15661 ft | 312 kts | 327° |
| 2026-04-25 17:05 | 55.37057 | -3.28113 | 15189 ft | 315 kts | 327° |
| 2026-04-25 17:05 | 55.40712 | -3.32057 | 14558 ft | 310 kts | 326° |
| 2026-04-25 17:05 | 55.42546 | -3.34043 | 14119 ft | 308 kts | 326° |
| 2026-04-25 17:06 | 55.44374 | -3.36020 | 13398 ft | 308 kts | 327° |
| 2026-04-25 17:06 | 55.46189 | -3.37986 | 12787 ft | 303 kts | 327° |
| 2026-04-25 17:06 | 55.47974 | -3.39921 | 12324 ft | 300 kts | 327° |
| 2026-04-25 17:06 | 55.49739 | -3.41832 | 11869 ft | 298 kts | 326° |
| 2026-04-25 17:07 | 55.51503 | -3.43747 | 11431 ft | 296 kts | 327° |
| 2026-04-25 17:07 | 55.53238 | -3.45632 | 10962 ft | 290 kts | 326° |
| 2026-04-25 17:07 | 55.54951 | -3.47491 | 10527 ft | 288 kts | 327° |
| 2026-04-25 17:07 | 55.56628 | -3.49309 | 10267 ft | 277 kts | 326° |
| 2026-04-25 17:08 | 55.58246 | -3.51065 | 10109 ft | 268 kts | 327° |
| 2026-04-25 17:08 | 55.59821 | -3.52782 | 9977 ft | 265 kts | 327° |
| 2026-04-25 17:08 | 55.61393 | -3.54499 | 9602 ft | 266 kts | 326° |
| 2026-04-25 17:08 | 55.62963 | -3.56215 | 9262 ft | 264 kts | 326° |
| 2026-04-25 17:09 | 55.64506 | -3.57907 | 8912 ft | 258 kts | 326° |
| 2026-04-25 17:09 | 55.66009 | -3.59556 | 8285 ft | 257 kts | 326° |
| 2026-04-25 17:09 | 55.67519 | -3.61212 | 7771 ft | 252 kts | 327° |
| 2026-04-25 17:09 | 55.69004 | -3.62838 | 7323 ft | 250 kts | 327° |
| 2026-04-25 17:10 | 55.70496 | -3.64471 | 6875 ft | 248 kts | 326° |
| 2026-04-25 17:10 | 55.71930 | -3.66048 | 6433 ft | 245 kts | 326° |
| 2026-04-25 17:10 | 55.73387 | -3.67657 | 5999 ft | 247 kts | 325° |
| 2026-04-25 17:10 | 55.74838 | -3.69262 | 5628 ft | 246 kts | 325° |
| 2026-04-25 17:11 | 55.76281 | -3.70858 | 5353 ft | 241 kts | 326° |
| 2026-04-25 17:11 | 55.77676 | -3.72395 | 5214 ft | 231 kts | 327° |
| 2026-04-25 17:11 | 55.79017 | -3.73872 | 5106 ft | 222 kts | 327° |
| 2026-04-25 17:11 | 55.80344 | -3.75142 | 4985 ft | 214 kts | 343° |
| 2026-04-25 17:12 | 55.81775 | -3.74931 | 4895 ft | 210 kts | 26° |
| 2026-04-25 17:12 | 55.82797 | -3.73089 | 4563 ft | 215 kts | 59° |
| 2026-04-25 17:12 | 55.83548 | -3.70812 | 4298 ft | 210 kts | 59° |
| 2026-04-25 17:12 | 55.84293 | -3.68604 | 4011 ft | 205 kts | 58° |
| 2026-04-25 17:13 | 55.85026 | -3.66465 | 3741 ft | 199 kts | 58° |
| 2026-04-25 17:13 | 55.85267 | -3.65761 | 3652 ft | 197 kts | 59° |
| 2026-04-25 17:13 | 55.86405 | -3.62452 | 3229 ft | 179 kts | 59° |
| 2026-04-25 17:13 | 55.87025 | -3.60654 | 3065 ft | 162 kts | 60° |
| 2026-04-25 17:14 | 55.87590 | -3.58986 | 2827 ft | 152 kts | 60° |
| 2026-04-25 17:14 | 55.88129 | -3.57380 | 2594 ft | 151 kts | 61° |
| 2026-04-25 17:14 | 55.88674 | -3.55763 | 2389 ft | 153 kts | 61° |
| 2026-04-25 17:14 | 55.89236 | -3.54147 | 2240 ft | 156 kts | 59° |
| 2026-04-25 17:15 | 55.89795 | -3.52527 | 2007 ft | 150 kts | 61° |
| 2026-04-25 17:15 | 55.90336 | -3.50954 | 1777 ft | 147 kts | 62° |
| 2026-04-25 17:15 | 55.90869 | -3.49406 | 1540 ft | 146 kts | 60° |
| 2026-04-25 17:15 | 55.91389 | -3.47879 | 1331 ft | 139 kts | 60° |
| 2026-04-25 17:16 | 55.91868 | -3.46450 | 1113 ft | 129 kts | 60° |
| 2026-04-25 17:16 | 55.92324 | -3.45117 | 917 ft | 125 kts | 59° |
| 2026-04-25 17:16 | 55.92783 | -3.43771 | 763 ft | 127 kts | 59° |
| 2026-04-25 17:16 | 55.93248 | -3.42400 | 575 ft | 131 kts | 57° |
| 2026-04-25 17:17 | 55.93721 | -3.40994 | 432 ft | 131 kts | 59° |
| 2026-04-25 17:17 | 55.94199 | -3.39602 | 266 ft | 131 kts | 58° |
| 2026-04-25 17:17 | 55.94662 | -3.38238 | 127 ft | 131 kts | 58° |
| 2026-04-25 17:17 | 55.95079 | -3.37014 | 110 ft | 94 kts | 59° |
| 2026-04-25 17:18 | 55.95328 | -3.36281 | 100 ft | 45 kts | 59° |
| 2026-04-25 17:18 | 55.95400 | -3.36068 | 100 ft | 13 kts | 58° |
| 2026-04-25 17:18 | 55.95450 | -3.35922 | 100 ft | 15 kts | 58° |
| 2026-04-25 17:18 | 55.95502 | -3.35772 | 103 ft | 13 kts | 58° |
| 2026-04-25 17:19 | 55.95552 | -3.35625 | 102 ft | 11 kts | 59° |
| 2026-04-25 17:19 | 55.95546 | -3.35494 | 101 ft | 13 kts | 138° |
| 2026-04-25 17:19 | 55.95480 | -3.35417 | 102 ft | 7 kts | 148° |
| 2026-04-25 17:19 | 55.95441 | -3.35407 | 104 ft | 5 kts | 196° |
| 2026-04-25 17:20 | 55.95425 | -3.35427 | 105 ft | 3 kts | 222° |
| 2026-04-25 17:20 | 55.95406 | -3.35472 | 105 ft | 4 kts | 233° |
| 2026-04-25 17:20 | 55.95394 | -3.35507 | 104 ft | 3 kts | 242° |
| 2026-04-25 17:20 | 55.95382 | -3.35544 | 105 ft | 7 kts | 240° |
| 2026-04-25 17:21 | 55.95341 | -3.35667 | 103 ft | 13 kts | 239° |
| 2026-04-25 17:21 | 55.95321 | -3.35728 | 101 ft | 13 kts | 239° |
| 2026-04-25 17:22 | 55.95309 | -3.35761 | 102 ft | 13 kts | 238° |
| 2026-04-25 17:22 | 55.95268 | -3.35882 | 102 ft | 6 kts | 238° |
| 2026-04-25 17:22 | 55.95246 | -3.35947 | 101 ft | 6 kts | 239° |
| 2026-04-25 17:23 | 55.95210 | -3.36051 | 100 ft | 16 kts | 238° |
| 2026-04-25 17:23 | 55.95155 | -3.36215 | 104 ft | 17 kts | 239° |
| 2026-04-25 17:23 | 55.95106 | -3.36362 | 105 ft | 9 kts | 238° |
| 2026-04-25 17:23 | 55.95065 | -3.36390 | 107 ft | 5 kts | 172° |
| 2026-04-25 17:24 | 55.95032 | -3.36387 | 107 ft | 4 kts | 186° |
| 2026-04-25 17:24 | 55.95012 | -3.36405 | 107 ft | 3 kts | 217° |
| 2026-04-25 17:24 | 55.94994 | -3.36457 | 106 ft | 7 kts | 239° |
| 2026-04-25 17:24 | 55.94968 | -3.36533 | 106 ft | 7 kts | 238° |
| 2026-04-25 17:25 | 55.94948 | -3.36588 | 106 ft | 4 kts | 233° |
| 2026-04-25 17:25 | 55.94907 | -3.36575 | 105 ft | 8 kts | 149° |
| 2026-04-25 17:25 | 55.94890 | -3.36557 | 106 ft | 2 kts | 151° |
| 2026-04-25 17:25 | 55.94883 | -3.36550 | 106 ft | 0 kts | 150° |
| 2026-04-25 17:26 | 55.94878 | -3.36545 | 107 ft | 0 kts | 150° |
| 2026-04-25 17:27 | 55.94869 | -3.37634 | 110 ft | 0 kts | 59° |
| 2026-04-25 17:27 | 55.94877 | -3.36543 | 107 ft | 0 kts | 149° |